This is the latest recevied weather packets stored in our database for station/object KD4WXI. If no packets are shown the sender has not sent any weather packets the latest 10 day(s).
| Time | Temp. | Humidity | Pressure | Rain* | Wind** | Luminosity | Snow |
|---|---|---|---|---|---|---|---|
| 1777832863 | 18.89° C | 37% | 1019.1 hPa | 0 mm | - | 740 W/m² | - |
| 1777832562 | 17.78° C | 33% | 1019.1 hPa | 0 mm | - | 747 W/m² | - |
| 1777832258 | 18.89° C | 33% | 1019.2 hPa | 0 mm | - | 752 W/m² | - |
| 1777831955 | 18.89° C | 36% | 1019.2 hPa | 0 mm | - | 757 W/m² | - |
| 1777831652 | 18.89° C | 34% | 1019.2 hPa | 0 mm | - | 763 W/m² | - |
| 1777831350 | 18.89° C | 32% | 1019.4 hPa | 0 mm | - | 765 W/m² | - |
| 1777831046 | 18.89° C | 34% | 1019.5 hPa | 0 mm | - | 770 W/m² | - |
| 1777830745 | 19.44° C | 32% | 1019.7 hPa | 0 mm | - | 773 W/m² | - |
| 1777830440 | 18.89° C | 35% | 1019.7 hPa | 0 mm | - | 776 W/m² | - |
| 1777830138 | 17.78° C | 33% | 1019.6 hPa | 0 mm | - | 783 W/m² | - |
| 1777829833 | 17.78° C | 37% | 1019.5 hPa | 0 mm | - | 784 W/m² | - |
| 1777829529 | 18.89° C | 32% | 1019.9 hPa | 0 mm | - | 784 W/m² | - |
| 1777829226 | 18.89° C | 32% | 1019.7 hPa | 0 mm | - | 784 W/m² | - |
| 1777828923 | 17.78° C | 33% | 1019.8 hPa | 0 mm | - | 783 W/m² | - |
| 1777828620 | 17.22° C | 35% | 1019.9 hPa | 0 mm | - | 783 W/m² | - |
| 1777828317 | 17.78° C | 37% | 1020.1 hPa | 0 mm | - | 784 W/m² | - |
| 1777828014 | 16.67° C | 37% | 1020.2 hPa | 0 mm | - | 783 W/m² | - |
| 1777827711 | 18.33° C | 33% | 1020.3 hPa | 0 mm | - | 783 W/m² | - |
| 1777827408 | 18.33° C | 32% | 1020.3 hPa | 0 mm | - | 781 W/m² | - |
| 1777827104 | 17.22° C | 37% | 1020.2 hPa | 0 mm | - | 778 W/m² | - |
| 1777826801 | 17.22° C | 35% | 1020.2 hPa | 0 mm | - | 775 W/m² | - |
| 1777826498 | 17.22° C | 33% | 1020.4 hPa | 0 mm | - | 771 W/m² | - |
| 1777826195 | 17.78° C | 35% | 1020.7 hPa | 0 mm | - | 769 W/m² | - |
| 1777825892 | 17.22° C | 40% | 1020.6 hPa | 0 mm | - | 766 W/m² | - |
| 1777825589 | 17.78° C | 39% | 1020.7 hPa | 0 mm | - | 759 W/m² | - |
* Rain latest hour (hover to see other rain measurements)
** Current wind speed in m/s (hover to see current wind gust speed)